Time;durP1;ratioP1;P1;durP2;ratioP2;P2;SDS_P1;SDS_P2;PMS_P1;PMS_P2;Temp;Humidity;BMP_temperature;BMP_pressure;BME280_temperature;BME280_humidity;BME280_pressure;Samples;Min_cycle;Max_cycle;Signal;HPM_P1;HPM_P2
2022/03/09 00:00:28;;;;;;;28.77;17.38;;;0.10;99.90;;;;;;2062644;28;20034;-72
2022/03/09 00:01:30;;;;;;;30.33;17.70;;;0.10;99.90;;;;;;2063999;28;20034;-72
2022/03/09 00:02:30;;;;;;;32.40;17.63;;;0.10;99.90;;;;;;2063997;28;20026;-72
2022/03/09 00:03:31;;;;;;;33.20;17.88;;;0.10;99.90;;;;;;2064028;28;20034;-70
2022/03/09 00:04:31;;;;;;;30.98;18.13;;;0.10;99.90;;;;;;2063996;28;20034;-71
2022/03/09 00:05:32;;;;;;;34.38;19.90;;;0.00;99.90;;;;;;2064036;28;20038;-70
2022/03/09 00:06:33;;;;;;;34.40;19.88;;;0.00;99.90;;;;;;2063371;28;20038;-70
2022/03/09 00:07:34;;;;;;;35.10;19.40;;;0.00;99.90;;;;;;2063740;28;20072;-72
2022/03/09 00:08:35;;;;;;;31.15;18.52;;;0.00;99.90;;;;;;2063137;28;20052;-70
2022/03/09 00:09:35;;;;;;;28.63;17.70;;;0.00;99.90;;;;;;2063904;28;20439;-70
2022/03/09 00:10:36;;;;;;;29.88;17.85;;;0.00;99.90;;;;;;2063633;28;20026;-70
2022/03/09 00:11:37;;;;;;;30.15;17.52;;;0.00;99.90;;;;;;2064064;28;20041;-72
2022/03/09 00:12:37;;;;;;;30.25;18.08;;;0.00;99.90;;;;;;2063503;28;20053;-72
2022/03/09 00:13:38;;;;;;;31.58;17.67;;;0.00;99.90;;;;;;2063380;28;20681;-72
2022/03/09 00:14:41;;;;;;;28.98;17.38;;;-0.10;99.90;;;;;;2064123;28;20448;-71
2022/03/09 00:15:41;;;;;;;28.85;17.20;;;0.00;99.90;;;;;;2064327;28;20041;-72
2022/03/09 00:16:42;;;;;;;32.25;17.67;;;0.00;99.90;;;;;;2063686;28;20046;-72
2022/03/09 00:17:45;;;;;;;30.58;17.63;;;0.00;99.90;;;;;;2063715;28;20030;-72
2022/03/09 00:18:46;;;;;;;31.17;17.35;;;-0.10;99.90;;;;;;2063877;28;20054;-71
2022/03/09 00:19:49;;;;;;;28.60;16.60;;;-0.10;99.90;;;;;;2063912;28;20027;-71
2022/03/09 00:20:50;;;;;;;28.05;16.65;;;-0.10;99.90;;;;;;2063800;28;20101;-72
2022/03/09 00:21:51;;;;;;;28.75;16.90;;;-0.10;99.90;;;;;;2064634;28;20516;-69
2022/03/09 00:22:51;;;;;;;26.65;15.80;;;-0.10;99.90;;;;;;2066128;28;20050;-72
2022/03/09 00:23:52;;;;;;;27.30;16.70;;;-0.10;99.90;;;;;;2066368;28;20105;-69
2022/03/09 00:24:52;;;;;;;28.73;15.68;;;-0.10;99.90;;;;;;2056674;28;20522;-71
2022/03/09 00:25:53;;;;;;;29.05;17.17;;;-0.10;99.90;;;;;;2063812;28;20034;-71
2022/03/09 00:26:53;;;;;;;26.05;16.05;;;-0.10;99.90;;;;;;2063899;28;20045;-70
2022/03/09 00:27:54;;;;;;;26.45;16.10;;;-0.10;99.90;;;;;;2063248;28;20030;-68
2022/03/09 00:28:57;;;;;;;25.48;15.80;;;-0.10;99.90;;;;;;2063307;28;20141;-67
2022/03/09 00:29:58;;;;;;;28.33;16.95;;;-0.10;99.90;;;;;;2062788;28;20122;-67
2022/03/09 00:30:59;;;;;;;27.67;16.10;;;-0.10;99.90;;;;;;2054901;28;20080;-72
2022/03/09 00:31:59;;;;;;;30.92;16.73;;;-0.20;99.90;;;;;;2062505;28;20081;-72
2022/03/09 00:33:00;;;;;;;28.02;16.83;;;-0.20;99.90;;;;;;2063636;28;20034;-69
2022/03/09 00:34:00;;;;;;;26.30;16.08;;;-0.20;99.90;;;;;;2063625;28;20127;-69
2022/03/09 00:35:01;;;;;;;27.20;16.38;;;-0.20;99.90;;;;;;2062717;28;20089;-72
2022/03/09 00:36:02;;;;;;;27.75;15.88;;;-0.20;99.90;;;;;;2062916;28;20148;-69
2022/03/09 00:37:03;;;;;;;25.85;15.95;;;-0.20;99.90;;;;;;2063673;28;20038;-70
2022/03/09 00:38:03;;;;;;;27.27;16.23;;;-0.20;99.90;;;;;;2063508;28;20454;-70
2022/03/09 00:39:04;;;;;;;27.40;15.95;;;-0.20;99.90;;;;;;2063531;28;20042;-71
2022/03/09 00:40:06;;;;;;;28.73;16.45;;;-0.20;99.90;;;;;;2062640;28;20109;-69
2022/03/09 00:41:07;;;;;;;28.80;16.70;;;-0.20;99.90;;;;;;2062826;28;20109;-70
2022/03/09 00:42:07;;;;;;;26.50;16.02;;;-0.20;99.90;;;;;;2062828;28;20026;-69
2022/03/09 00:43:08;;;;;;;27.85;16.52;;;-0.20;99.90;;;;;;2062974;28;20541;-70
2022/03/09 00:44:08;;;;;;;27.35;17.00;;;-0.20;99.90;;;;;;2063564;28;20034;-70
2022/03/09 00:45:09;;;;;;;27.77;16.52;;;-0.20;99.90;;;;;;2063559;28;20125;-71
2022/03/09 00:46:10;;;;;;;26.60;16.02;;;-0.20;99.90;;;;;;2063412;28;20019;-71
2022/03/09 00:47:11;;;;;;;29.20;16.58;;;-0.30;99.90;;;;;;2062693;28;20023;-72
2022/03/09 00:48:12;;;;;;;28.52;16.17;;;-0.30;99.90;;;;;;2062852;28;20034;-71
2022/03/09 00:49:13;;;;;;;31.10;16.92;;;-0.30;99.90;;;;;;2063467;28;20083;-69
2022/03/09 00:50:14;;;;;;;32.83;17.52;;;-0.30;99.90;;;;;;2063159;28;20033;-70
2022/03/09 00:51:15;;;;;;;33.47;17.80;;;-0.30;99.90;;;;;;2062466;28;20117;-70
2022/03/09 00:52:15;;;;;;;32.33;17.52;;;-0.30;99.90;;;;;;2054786;28;20386;-71
2022/03/09 00:53:16;;;;;;;33.85;18.20;;;-0.30;99.90;;;;;;2062724;28;20022;-72
2022/03/09 00:54:16;;;;;;;33.58;17.83;;;-0.30;99.90;;;;;;2063402;28;20117;-72
2022/03/09 00:55:17;;;;;;;34.70;17.65;;;-0.30;99.90;;;;;;2063337;28;20041;-71
2022/03/09 00:56:18;;;;;;;33.83;17.50;;;-0.30;99.90;;;;;;2063537;28;20490;-71
2022/03/09 00:57:19;;;;;;;32.28;17.25;;;-0.40;99.90;;;;;;2062401;28;20026;-72
2022/03/09 00:58:19;;;;;;;33.00;17.38;;;-0.40;99.90;;;;;;2062786;28;20105;-73
2022/03/09 00:59:20;;;;;;;36.17;18.25;;;-0.40;99.90;;;;;;2063430;28;20489;-71
2022/03/09 01:00:21;;;;;;;34.55;17.60;;;-0.40;99.90;;;;;;2063374;28;20046;-70
2022/03/09 01:01:22;;;;;;;36.80;17.73;;;-0.40;99.90;;;;;;2063646;28;20037;-72
2022/03/09 01:02:23;;;;;;;38.10;18.00;;;-0.40;99.90;;;;;;2063667;28;20034;-73
2022/03/09 01:03:23;;;;;;;34.85;17.02;;;-0.40;99.90;;;;;;2063526;28;20030;-71
2022/03/09 01:04:24;;;;;;;29.42;16.65;;;-0.40;99.90;;;;;;2062778;28;20018;-71
2022/03/09 01:05:25;;;;;;;31.20;16.67;;;-0.40;99.90;;;;;;2062792;28;20134;-71
2022/03/09 01:06:25;;;;;;;30.75;16.35;;;-0.40;99.90;;;;;;2062602;28;20130;-70
2022/03/09 01:07:26;;;;;;;32.55;16.20;;;-0.40;99.90;;;;;;2062515;28;20024;-72
2022/03/09 01:08:26;;;;;;;31.73;16.30;;;-0.40;99.90;;;;;;2063254;28;20124;-70
2022/03/09 01:09:27;;;;;;;31.20;16.15;;;-0.40;99.90;;;;;;2065130;28;20026;-70
2022/03/09 01:10:28;;;;;;;30.17;16.38;;;-0.30;99.90;;;;;;2057118;28;20050;-70
2022/03/09 01:11:29;;;;;;;31.75;16.80;;;-0.40;99.90;;;;;;2057573;28;20027;-69
2022/03/09 01:12:31;;;;;;;29.90;16.50;;;-0.30;99.90;;;;;;2056136;28;20550;-70
2022/03/09 01:13:32;;;;;;;33.92;16.77;;;-0.30;99.90;;;;;;2063172;28;20088;-70
2022/03/09 01:14:33;;;;;;;29.80;15.93;;;-0.30;99.90;;;;;;2063615;28;20677;-69
2022/03/09 01:15:34;;;;;;;33.55;17.40;;;-0.30;99.90;;;;;;2062499;28;20037;-70
2022/03/09 01:16:34;;;;;;;30.10;16.17;;;-0.30;99.90;;;;;;2062924;28;20097;-72
2022/03/09 01:17:35;;;;;;;33.25;16.83;;;-0.30;99.90;;;;;;2063415;28;20104;-70
2022/03/09 01:18:35;;;;;;;30.88;16.05;;;-0.40;99.90;;;;;;2062820;28;20153;-71
2022/03/09 01:19:36;;;;;;;32.17;16.27;;;-0.30;99.90;;;;;;2062791;28;20737;-69
2022/03/09 01:20:37;;;;;;;32.60;16.05;;;-0.40;99.90;;;;;;2062396;28;20030;-70
2022/03/09 01:21:37;;;;;;;30.10;16.02;;;-0.30;99.90;;;;;;2062456;28;20489;-70
2022/03/09 01:22:38;;;;;;;29.83;15.70;;;-0.40;99.90;;;;;;2063206;28;20041;-70
2022/03/09 01:23:39;;;;;;;31.48;16.38;;;-0.40;99.90;;;;;;2063352;28;20038;-69
2022/03/09 01:24:40;;;;;;;30.25;15.45;;;-0.40;99.90;;;;;;2062741;28;20074;-71
2022/03/09 01:25:40;;;;;;;32.35;15.70;;;-0.40;99.90;;;;;;2062739;28;20038;-69
2022/03/09 01:26:42;;;;;;;32.88;16.75;;;-0.40;99.90;;;;;;2063215;28;20654;-71
2022/03/09 01:27:42;;;;;;;34.60;16.10;;;-0.40;99.90;;;;;;2063167;28;20085;-71
2022/03/09 01:28:43;;;;;;;32.72;15.75;;;-0.40;99.90;;;;;;2063249;28;20030;-70
2022/03/09 01:29:43;;;;;;;28.88;15.05;;;-0.40;99.90;;;;;;2062366;28;20490;-71
2022/03/09 01:30:44;;;;;;;29.85;15.45;;;-0.40;99.90;;;;;;2061994;28;20038;-71
2022/03/09 01:31:45;;;;;;;30.45;14.93;;;-0.40;99.90;;;;;;2063206;28;20026;-71
2022/03/09 01:32:45;;;;;;;27.38;14.85;;;-0.40;99.90;;;;;;2062867;28;20084;-69
2022/03/09 01:33:46;;;;;;;28.98;14.70;;;-0.40;99.90;;;;;;2062366;28;20045;-70
2022/03/09 01:34:47;;;;;;;28.05;14.13;;;-0.40;99.90;;;;;;2062552;28;20049;-72
2022/03/09 01:35:48;;;;;;;27.10;14.60;;;-0.40;99.90;;;;;;2063053;28;20742;-69
2022/03/09 01:36:48;;;;;;;29.50;14.05;;;-0.40;99.90;;;;;;2063131;28;20030;-69
2022/03/09 01:37:49;;;;;;;28.48;13.93;;;-0.40;99.90;;;;;;2062468;28;20030;-68
2022/03/09 01:38:50;;;;;;;28.45;14.98;;;-0.40;99.90;;;;;;2062513;28;20561;-69
2022/03/09 01:39:51;;;;;;;26.85;13.85;;;-0.40;99.90;;;;;;2062512;28;20661;-68
2022/03/09 01:40:51;;;;;;;23.38;13.70;;;-0.40;99.90;;;;;;2062129;28;20046;-71
2022/03/09 01:41:52;;;;;;;23.17;13.68;;;-0.40;99.90;;;;;;2062535;28;20126;-71
2022/03/09 01:42:53;;;;;;;24.73;13.40;;;-0.40;99.90;;;;;;2062400;28;20102;-70
2022/03/09 01:44:09;;;;;;;24.00;13.57;;;-0.40;99.90;;;;;;2062172;28;20117;-70
2022/03/09 01:45:11;;;;;;;23.25;13.60;;;-0.40;99.90;;;;;;2062298;28;20053;-70
2022/03/09 01:46:12;;;;;;;26.35;13.40;;;-0.40;99.90;;;;;;2054553;28;20034;-72
2022/03/09 01:47:13;;;;;;;24.92;13.70;;;-0.40;99.90;;;;;;2062259;28;20121;-68
2022/03/09 01:48:14;;;;;;;26.40;13.73;;;-0.40;99.90;;;;;;2062415;28;20034;-72
2022/03/09 01:49:15;;;;;;;26.13;13.43;;;-0.40;99.90;;;;;;2062453;28;20033;-71
2022/03/09 01:50:16;;;;;;;23.67;13.13;;;-0.50;99.90;;;;;;2062666;28;20026;-70
2022/03/09 01:51:16;;;;;;;22.20;12.93;;;-0.50;99.90;;;;;;2062374;28;20054;-70
2022/03/09 01:52:17;;;;;;;23.60;12.82;;;-0.50;99.90;;;;;;2062414;28;20084;-69
2022/03/09 01:53:18;;;;;;;23.65;13.52;;;-0.50;99.90;;;;;;2063078;28;20786;-72
2022/03/09 01:54:20;;;;;;;22.35;12.70;;;-0.50;99.90;;;;;;2062271;28;20397;-72
2022/03/09 01:55:21;;;;;;;20.58;12.13;;;-0.50;99.90;;;;;;2054110;28;20379;-72
2022/03/09 01:56:21;;;;;;;19.95;12.40;;;-0.50;99.90;;;;;;2062492;28;20041;-70
2022/03/09 01:57:22;;;;;;;19.33;12.05;;;-0.50;99.90;;;;;;2063192;28;20038;-72
2022/03/09 01:58:24;;;;;;;20.25;12.30;;;-0.50;99.90;;;;;;2063072;28;20061;-72
2022/03/09 01:59:25;;;;;;;20.58;11.80;;;-0.50;99.90;;;;;;2063136;28;20402;-72
2022/03/09 02:00:25;;;;;;;17.75;11.57;;;-0.50;99.90;;;;;;2062714;28;20030;-72
2022/03/09 02:01:26;;;;;;;19.83;11.82;;;-0.50;99.90;;;;;;2062373;28;20477;-73
2022/03/09 02:02:27;;;;;;;19.05;12.07;;;-0.50;99.90;;;;;;2062459;28;20038;-71
2022/03/09 02:03:27;;;;;;;19.80;12.45;;;-0.50;99.90;;;;;;2062250;28;20030;-71
2022/03/09 02:04:28;;;;;;;21.65;12.68;;;-0.50;99.90;;;;;;2054518;28;20533;-73
2022/03/09 02:05:29;;;;;;;21.52;12.70;;;-0.50;99.90;;;;;;2062520;28;20105;-71
2022/03/09 02:06:31;;;;;;;21.00;12.70;;;-0.60;99.90;;;;;;2063040;28;20034;-70
2022/03/09 02:10:17;;;;;;;;;;;-0.60;99.90;;;;;;2063087;28;20018;-72
2022/03/09 02:11:19;;;;;;;20.40;12.55;;;-0.60;99.90;;;;;;2063062;28;20301;-72
2022/03/09 02:12:19;;;;;;;24.02;13.60;;;-0.60;99.90;;;;;;2063238;28;20383;-72
2022/03/09 02:13:20;;;;;;;20.90;13.23;;;-0.60;99.90;;;;;;2063258;28;20030;-70
2022/03/09 02:14:32;;;;;;;23.35;13.43;;;-0.70;99.90;;;;;;2063033;28;20130;-69
2022/03/09 02:15:33;;;;;;;24.00;13.68;;;-0.70;99.90;;;;;;2063164;28;21981;-72
2022/03/09 02:16:34;;;;;;;23.13;13.80;;;-0.70;99.90;;;;;;2063077;28;20027;-71
2022/03/09 02:17:35;;;;;;;24.55;13.65;;;-0.70;99.90;;;;;;2063225;28;20085;-72
2022/03/09 02:18:35;;;;;;;23.77;13.25;;;-0.70;99.90;;;;;;2063220;28;20027;-71
2022/03/09 02:19:37;;;;;;;23.42;14.63;;;-0.70;99.90;;;;;;2063029;28;20022;-70
2022/03/09 02:20:44;;;;;;;24.88;14.45;;;-0.70;99.90;;;;;;2063048;28;20035;-71
2022/03/09 02:21:49;;;;;;;24.55;14.43;;;-0.70;99.90;;;;;;2063722;28;20022;-72
2022/03/09 02:22:53;;;;;;;28.83;15.60;;;-0.70;99.90;;;;;;2063698;28;20077;-72
2022/03/09 02:23:54;;;;;;;22.50;13.55;;;-0.80;99.90;;;;;;2063108;28;20038;-71
2022/03/09 02:24:54;;;;;;;24.00;14.35;;;-0.80;99.90;;;;;;2063018;28;20018;-72
2022/03/09 02:25:55;;;;;;;24.05;14.05;;;-0.80;99.90;;;;;;2062722;28;20492;-72
2022/03/09 02:26:55;;;;;;;22.30;14.23;;;-0.80;99.90;;;;;;2063035;28;20537;-72
2022/03/09 02:27:56;;;;;;;21.00;13.43;;;-0.80;99.90;;;;;;2063042;28;20037;-72
2022/03/09 02:28:56;;;;;;;23.55;14.00;;;-0.80;99.90;;;;;;2063128;28;20041;-71
2022/03/09 02:29:57;;;;;;;21.63;13.27;;;-0.80;99.90;;;;;;2062926;28;20033;-72
2022/03/09 02:30:58;;;;;;;22.58;13.57;;;-0.80;99.90;;;;;;2062249;28;20035;-71
2022/03/09 02:32:00;;;;;;;21.15;13.57;;;-0.80;99.90;;;;;;2062536;28;20030;-71
2022/03/09 02:33:00;;;;;;;23.85;13.55;;;-0.80;99.90;;;;;;2064523;28;20030;-70
2022/03/09 02:34:01;;;;;;;23.85;13.80;;;-0.80;99.90;;;;;;2064456;28;20030;-71
2022/03/09 02:35:01;;;;;;;22.00;13.52;;;-0.80;99.90;;;;;;2066090;28;20022;-72
2022/03/09 02:36:03;;;;;;;21.95;13.88;;;-0.80;99.90;;;;;;2065813;28;20046;-72
2022/03/09 02:37:04;;;;;;;21.52;13.63;;;-0.90;99.90;;;;;;2062930;28;20038;-71
2022/03/09 02:38:05;;;;;;;19.90;13.18;;;-0.80;99.90;;;;;;2062598;28;20105;-69
2022/03/09 02:39:05;;;;;;;23.95;14.23;;;-0.90;99.90;;;;;;2062026;28;20557;-70
2022/03/09 02:40:11;;;;;;;24.80;13.80;;;-0.90;99.90;;;;;;2053563;28;20143;-71
2022/03/09 02:41:12;;;;;;;24.00;14.20;;;-0.80;99.90;;;;;;2062069;28;20021;-68
2022/03/09 02:42:13;;;;;;;25.33;13.93;;;-0.90;99.90;;;;;;2062002;28;20038;-72
2022/03/09 02:43:14;;;;;;;22.98;14.25;;;-0.90;99.90;;;;;;2061818;28;20033;-70
2022/03/09 02:44:14;;;;;;;23.00;14.23;;;-0.90;99.90;;;;;;2062470;28;20057;-69
2022/03/09 02:45:15;;;;;;;23.20;14.27;;;-0.90;99.90;;;;;;2062425;28;20169;-70
2022/03/09 02:46:16;;;;;;;23.25;14.23;;;-0.90;99.90;;;;;;2062452;28;20101;-69
2022/03/09 02:47:16;;;;;;;21.67;13.68;;;-0.90;99.90;;;;;;2063101;28;20363;-70
2022/03/09 02:48:17;;;;;;;25.35;14.65;;;-0.90;99.90;;;;;;2063551;28;20520;-69
2022/03/09 02:49:17;;;;;;;24.67;14.73;;;-0.90;99.90;;;;;;2063436;28;20030;-71
2022/03/09 02:50:18;;;;;;;24.13;14.25;;;-0.90;99.90;;;;;;2062911;28;20037;-69
2022/03/09 02:51:19;;;;;;;24.90;14.70;;;-0.90;99.90;;;;;;2064061;28;20104;-70
2022/03/09 02:52:19;;;;;;;23.75;13.98;;;-1.00;99.90;;;;;;2064470;28;20018;-70
2022/03/09 02:53:20;;;;;;;24.33;14.65;;;-1.00;99.90;;;;;;2063533;28;20084;-70
2022/03/09 02:54:22;;;;;;;23.85;14.30;;;-1.00;99.90;;;;;;2063011;28;20031;-71
2022/03/09 02:55:23;;;;;;;22.17;13.85;;;-0.90;99.90;;;;;;2063213;28;20073;-71
2022/03/09 02:56:24;;;;;;;24.25;14.18;;;-1.00;99.90;;;;;;2064178;28;20038;-71
2022/03/09 02:57:24;;;;;;;24.80;14.23;;;-1.00;99.90;;;;;;2063892;28;20053;-69
2022/03/09 02:58:25;;;;;;;23.15;14.07;;;-1.00;99.90;;;;;;2063903;28;20064;-70
2022/03/09 02:59:27;;;;;;;24.50;14.77;;;-1.00;99.90;;;;;;2063756;28;20041;-71
2022/03/09 03:00:27;;;;;;;24.58;14.35;;;-1.00;99.90;;;;;;2063257;28;20386;-70
2022/03/09 03:01:28;;;;;;;22.88;14.10;;;-1.00;99.90;;;;;;2063782;28;20034;-70
2022/03/09 03:02:29;;;;;;;24.42;14.40;;;-1.00;99.90;;;;;;2063234;28;20541;-69
2022/03/09 03:03:29;;;;;;;23.55;14.80;;;-1.10;99.90;;;;;;2047167;28;20027;-71
2022/03/09 03:04:30;;;;;;;28.25;15.88;;;-1.10;99.90;;;;;;2055310;28;20798;-70
2022/03/09 03:05:30;;;;;;;27.42;15.27;;;-1.10;99.90;;;;;;2063093;28;20053;-69
2022/03/09 03:06:31;;;;;;;29.30;15.80;;;-1.10;99.90;;;;;;2054843;28;20114;-69
2022/03/09 03:07:32;;;;;;;26.77;15.48;;;-1.10;99.90;;;;;;2055075;28;20031;-71
2022/03/09 03:08:33;;;;;;;26.88;15.55;;;-1.10;99.90;;;;;;2063099;28;20053;-70
2022/03/09 03:09:34;;;;;;;26.52;15.85;;;-1.10;99.90;;;;;;2063730;28;20089;-70
2022/03/09 03:10:34;;;;;;;29.13;16.10;;;-1.10;99.90;;;;;;2063187;28;20034;-69
2022/03/09 03:11:35;;;;;;;27.85;15.30;;;-1.10;99.90;;;;;;2063230;28;20115;-70
2022/03/09 03:12:35;;;;;;;28.05;15.27;;;-1.10;99.90;;;;;;2063185;28;20056;-70
2022/03/09 03:13:40;;;;;;;27.20;15.43;;;-1.10;99.90;;;;;;2062971;28;20490;-71
2022/03/09 03:14:41;;;;;;;27.50;15.65;;;-1.10;99.90;;;;;;2063047;28;20027;-70
2022/03/09 03:15:44;;;;;;;26.75;15.15;;;-1.10;99.90;;;;;;2071072;28;20037;-70
2022/03/09 03:16:45;;;;;;;25.75;14.60;;;-1.10;99.90;;;;;;2063109;28;20466;-70
2022/03/09 03:17:46;;;;;;;27.98;15.38;;;-1.10;99.90;;;;;;2063034;28;20023;-70
2022/03/09 03:18:46;;;;;;;26.67;14.90;;;-1.10;99.90;;;;;;2063748;28;20034;-70
2022/03/09 03:19:47;;;;;;;25.10;14.02;;;-1.10;99.90;;;;;;2063673;28;20556;-69
2022/03/09 03:20:51;;;;;;;25.83;14.70;;;-1.10;99.90;;;;;;2063350;28;20545;-69
2022/03/09 03:21:53;;;;;;;25.45;14.23;;;-1.10;99.90;;;;;;2063848;28;20029;-70
2022/03/09 03:22:54;;;;;;;24.92;14.23;;;-1.10;99.90;;;;;;2063602;28;20026;-71
2022/03/09 03:23:55;;;;;;;25.65;14.07;;;-1.10;99.90;;;;;;2063686;28;20023;-70
2022/03/09 03:24:55;;;;;;;26.77;15.02;;;-1.20;99.90;;;;;;2063617;28;20526;-70
2022/03/09 03:25:57;;;;;;;31.73;15.75;;;-1.20;99.90;;;;;;2063586;28;20053;-69
2022/03/09 03:26:58;;;;;;;30.35;15.73;;;-1.20;99.90;;;;;;2063688;28;20026;-72
2022/03/09 03:27:58;;;;;;;34.55;16.33;;;-1.20;99.90;;;;;;2063597;28;20037;-69
2022/03/09 03:28:59;;;;;;;34.90;16.30;;;-1.20;99.90;;;;;;2063635;28;20411;-70
2022/03/09 03:29:59;;;;;;;34.95;16.88;;;-1.20;99.90;;;;;;2063299;28;20610;-69
2022/03/09 03:31:00;;;;;;;34.83;16.27;;;-1.20;99.90;;;;;;2063650;28;20030;-72
2022/03/09 03:32:01;;;;;;;37.45;17.33;;;-1.20;99.90;;;;;;2063746;28;20110;-71
2022/03/09 03:33:02;;;;;;;38.70;17.68;;;-1.20;99.90;;;;;;2044519;28;1073537;-71
2022/03/09 03:34:02;;;;;;;35.88;16.17;;;-1.20;99.90;;;;;;2063428;28;20038;-68
2022/03/09 03:35:04;;;;;;;35.25;16.02;;;-1.20;99.90;;;;;;2063167;28;20022;-69
2022/03/09 03:36:04;;;;;;;37.47;17.48;;;-1.20;99.90;;;;;;2063432;28;20557;-70
2022/03/09 03:37:06;;;;;;;35.92;16.52;;;-1.30;99.90;;;;;;2064103;28;20065;-67
2022/03/09 03:38:07;;;;;;;37.63;16.83;;;-1.30;99.90;;;;;;2064078;28;20026;-72
2022/03/09 03:39:07;;;;;;;35.35;16.75;;;-1.20;99.90;;;;;;2063895;28;20498;-72
2022/03/09 03:40:09;;;;;;;35.25;16.83;;;-1.30;99.90;;;;;;2063485;28;20054;-69
2022/03/09 03:41:10;;;;;;;35.40;15.98;;;-1.30;99.90;;;;;;2063924;28;20026;-70
2022/03/09 03:42:11;;;;;;;30.08;15.40;;;-1.30;99.90;;;;;;2063797;28;20441;-71
2022/03/09 03:43:12;;;;;;;27.10;14.23;;;-1.30;99.90;;;;;;2063338;28;20038;-71
2022/03/09 03:44:13;;;;;;;27.73;14.40;;;-1.30;99.90;;;;;;2063387;28;20037;-72
2022/03/09 03:45:13;;;;;;;24.65;14.40;;;-1.30;99.90;;;;;;2063389;28;20038;-72
2022/03/09 03:46:14;;;;;;;25.25;14.57;;;-1.30;99.90;;;;;;2063431;28;20035;-72
2022/03/09 03:47:14;;;;;;;25.42;13.95;;;-1.30;99.90;;;;;;2063248;28;20039;-71
2022/03/09 03:48:15;;;;;;;24.88;13.95;;;-1.30;99.90;;;;;;2063412;28;20550;-71
2022/03/09 03:49:16;;;;;;;23.20;13.73;;;-1.30;99.90;;;;;;2071492;28;20550;-72
2022/03/09 03:50:16;;;;;;;32.53;15.82;;;-1.30;99.90;;;;;;2063119;28;20034;-72
2022/03/09 03:51:17;;;;;;;34.58;16.35;;;-1.30;99.90;;;;;;2063284;28;20049;-71
2022/03/09 03:52:18;;;;;;;35.47;16.40;;;-1.30;99.90;;;;;;2063369;28;20050;-72
2022/03/09 03:53:18;;;;;;;35.35;16.63;;;-1.30;99.90;;;;;;2063223;28;20405;-72
2022/03/09 03:54:19;;;;;;;36.08;16.77;;;-1.40;99.90;;;;;;2063224;28;20549;-72
2022/03/09 03:55:20;;;;;;;35.83;16.77;;;-1.40;99.90;;;;;;2063019;28;20444;-71
2022/03/09 03:56:20;;;;;;;34.70;16.10;;;-1.40;99.90;;;;;;2063893;28;20101;-73
2022/03/09 03:57:21;;;;;;;34.20;16.60;;;-1.40;99.90;;;;;;2063762;28;20581;-69
2022/03/09 03:58:21;;;;;;;34.78;16.52;;;-1.40;99.90;;;;;;2063908;28;20477;-72
2022/03/09 03:59:22;;;;;;;37.33;17.30;;;-1.40;99.90;;;;;;2063980;28;20033;-73
2022/03/09 04:00:23;;;;;;;34.92;16.55;;;-1.40;99.90;;;;;;2063501;28;20777;-72
2022/03/09 04:01:24;;;;;;;29.95;15.63;;;-1.40;99.90;;;;;;2063162;28;20498;-72
2022/03/09 04:02:25;;;;;;;28.60;15.50;;;-1.40;99.90;;;;;;2055416;28;20081;-72
2022/03/09 04:03:25;;;;;;;28.35;15.20;;;-1.40;99.90;;;;;;2054901;28;20137;-69
2022/03/09 04:04:26;;;;;;;27.85;15.40;;;-1.40;99.90;;;;;;2055140;28;20022;-69
2022/03/09 04:05:27;;;;;;;25.65;14.68;;;-1.40;99.90;;;;;;2063349;28;20030;-72
2022/03/09 04:06:29;;;;;;;28.98;14.95;;;-1.40;99.90;;;;;;2054801;28;20027;-71
2022/03/09 04:07:30;;;;;;;26.98;15.13;;;-1.40;99.90;;;;;;2046884;28;20813;-71
2022/03/09 04:08:31;;;;;;;28.23;15.25;;;-1.40;99.90;;;;;;2063373;28;20038;-71
2022/03/09 04:09:32;;;;;;;28.30;14.90;;;-1.40;99.90;;;;;;2063244;28;20027;-73
2022/03/09 04:10:32;;;;;;;28.65;15.15;;;-1.40;99.90;;;;;;2062804;28;20462;-72
2022/03/09 04:11:33;;;;;;;27.98;15.30;;;-1.40;99.90;;;;;;2063919;28;20397;-71
2022/03/09 04:12:34;;;;;;;29.23;15.43;;;-1.40;99.90;;;;;;2063220;28;20045;-72
2022/03/09 04:13:34;;;;;;;29.38;15.48;;;-1.40;99.90;;;;;;2063133;28;20041;-71
2022/03/09 04:14:35;;;;;;;31.08;15.65;;;-1.40;99.90;;;;;;2071293;28;20037;-70
2022/03/09 04:15:36;;;;;;;29.05;15.52;;;-1.40;99.90;;;;;;2070886;28;20072;-71
2022/03/09 04:16:37;;;;;;;30.05;15.52;;;-1.40;99.90;;;;;;2063029;28;20023;-71
2022/03/09 04:17:45;;;;;;;30.15;15.77;;;-1.40;99.90;;;;;;2055024;28;20077;-71
2022/03/09 04:18:46;;;;;;;30.40;15.27;;;-1.40;99.90;;;;;;2063192;28;20035;-71
2022/03/09 04:19:46;;;;;;;29.08;15.35;;;-1.40;99.90;;;;;;2063664;28;20036;-70
2022/03/09 04:20:47;;;;;;;27.58;14.82;;;-1.40;99.90;;;;;;2063230;28;20502;-72
2022/03/09 04:21:48;;;;;;;29.73;15.50;;;-1.40;99.90;;;;;;2063587;28;20034;-71
2022/03/09 04:22:48;;;;;;;26.95;15.15;;;-1.40;99.90;;;;;;2063615;28;20077;-71
2022/03/09 04:23:49;;;;;;;26.83;14.90;;;-1.40;99.90;;;;;;2063708;28;20052;-72
2022/03/09 04:24:50;;;;;;;25.33;14.10;;;-1.40;99.90;;;;;;2063714;28;20101;-71
2022/03/09 04:25:51;;;;;;;25.20;14.45;;;-1.40;99.90;;;;;;2063721;28;20121;-71
2022/03/09 04:26:51;;;;;;;26.15;14.75;;;-1.40;99.90;;;;;;2063102;28;20034;-70
2022/03/09 04:27:53;;;;;;;24.42;14.18;;;-1.50;99.90;;;;;;2062859;28;20500;-70
2022/03/09 04:28:53;;;;;;;25.58;14.38;;;-1.50;99.90;;;;;;2063047;28;20030;-73
2022/03/09 04:29:54;;;;;;;24.33;13.95;;;-1.40;99.90;;;;;;2063360;28;20069;-72
2022/03/09 04:30:54;;;;;;;25.55;14.02;;;-1.40;99.90;;;;;;2063246;28;20716;-71
2022/03/09 04:31:56;;;;;;;24.67;13.55;;;-1.40;99.90;;;;;;2062931;28;20026;-72
2022/03/09 04:32:56;;;;;;;23.58;13.60;;;-1.40;99.90;;;;;;2062935;28;20060;-72
2022/03/09 04:33:57;;;;;;;22.33;13.00;;;-1.40;99.90;;;;;;2062914;28;20643;-72
2022/03/09 04:34:58;;;;;;;22.83;13.13;;;-1.40;99.90;;;;;;2063721;28;20030;-71
2022/03/09 04:35:58;;;;;;;21.63;13.50;;;-1.50;99.90;;;;;;2063627;28;20026;-72
2022/03/09 04:36:59;;;;;;;21.83;12.88;;;-1.40;99.90;;;;;;2063716;28;20103;-69
2022/03/09 04:37:59;;;;;;;23.80;13.50;;;-1.50;99.90;;;;;;2063571;28;20022;-69
2022/03/09 04:39:00;;;;;;;22.55;13.00;;;-1.40;99.90;;;;;;2063526;28;20386;-72
2022/03/09 04:40:03;;;;;;;23.30;13.45;;;-1.50;99.90;;;;;;2063269;28;20022;-67
2022/03/09 04:41:03;;;;;;;20.02;12.48;;;-1.40;99.90;;;;;;2063221;28;20044;-70
2022/03/09 04:42:04;;;;;;;24.00;13.68;;;-1.40;99.90;;;;;;2063465;28;20084;-72
2022/03/09 04:43:05;;;;;;;21.70;12.90;;;-1.50;99.90;;;;;;2063454;28;20022;-71
2022/03/09 04:44:05;;;;;;;19.55;12.50;;;-1.50;99.90;;;;;;2063408;28;20026;-71
2022/03/09 04:45:06;;;;;;;21.10;12.82;;;-1.40;99.90;;;;;;2063680;28;20141;-72
2022/03/09 04:46:07;;;;;;;23.40;13.25;;;-1.40;99.90;;;;;;2063649;28;20034;-72
2022/03/09 04:47:07;;;;;;;22.70;12.73;;;-1.40;99.90;;;;;;2063494;28;20038;-72
2022/03/09 04:48:08;;;;;;;21.13;12.90;;;-1.40;99.90;;;;;;2062954;28;20058;-71
2022/03/09 04:49:08;;;;;;;22.65;13.23;;;-1.40;99.90;;;;;;2063003;28;20057;-69
2022/03/09 04:50:10;;;;;;;21.00;12.75;;;-1.50;99.90;;;;;;2063145;28;20030;-71
2022/03/09 04:51:10;;;;;;;21.23;12.70;;;-1.50;99.90;;;;;;2063374;28;20042;-68
2022/03/09 04:52:11;;;;;;;20.92;12.38;;;-1.50;99.90;;;;;;2063521;28;20032;-68
2022/03/09 04:53:12;;;;;;;20.80;12.55;;;-1.50;99.90;;;;;;2063519;28;20026;-71
2022/03/09 04:54:12;;;;;;;20.98;12.48;;;-1.50;99.90;;;;;;2063278;28;20058;-71
2022/03/09 04:55:13;;;;;;;21.25;13.20;;;-1.40;99.90;;;;;;2063132;28;20533;-71
2022/03/09 04:56:14;;;;;;;21.30;12.43;;;-1.40;99.90;;;;;;2062625;28;20501;-71
2022/03/09 04:57:15;;;;;;;19.77;11.70;;;-1.40;99.90;;;;;;2062643;28;20030;-69
2022/03/09 04:58:16;;;;;;;22.55;12.70;;;-1.50;99.90;;;;;;2063396;28;20026;-68
2022/03/09 04:59:17;;;;;;;21.50;13.23;;;-1.40;99.90;;;;;;2063479;28;20030;-68
2022/03/09 05:00:18;;;;;;;23.10;13.07;;;-1.50;99.90;;;;;;2063192;28;20498;-69
2022/03/09 05:01:18;;;;;;;22.70;13.02;;;-1.50;99.90;;;;;;2063214;28;20030;-69
2022/03/09 05:02:19;;;;;;;22.92;13.05;;;-1.50;99.90;;;;;;2063512;28;20042;-69
2022/03/09 05:03:20;;;;;;;23.55;13.55;;;-1.40;99.90;;;;;;2063451;28;20162;-70
2022/03/09 05:04:21;;;;;;;24.67;13.35;;;-1.40;99.90;;;;;;2063355;28;20604;-69
2022/03/09 05:05:21;;;;;;;25.42;13.57;;;-1.40;99.90;;;;;;2063509;28;20680;-70
2022/03/09 05:06:22;;;;;;;24.52;13.27;;;-1.50;99.90;;;;;;2063301;28;20034;-68
2022/03/09 05:07:23;;;;;;;23.60;13.48;;;-1.40;99.90;;;;;;2063456;28;20034;-69
2022/03/09 05:08:23;;;;;;;20.80;12.32;;;-1.40;99.90;;;;;;2063404;28;20034;-71
2022/03/09 05:09:24;;;;;;;21.95;13.13;;;-1.50;99.90;;;;;;2063589;28;20118;-69
2022/03/09 05:10:25;;;;;;;20.95;12.45;;;-1.50;99.90;;;;;;2062883;28;20018;-69
2022/03/09 05:11:26;;;;;;;22.80;12.68;;;-1.40;99.90;;;;;;2063375;28;20037;-69
2022/03/09 05:12:26;;;;;;;21.95;12.68;;;-1.50;99.90;;;;;;2063450;28;20034;-68